sensor_id;sensor_type;location;lat;lon;timestamp;temperature;humidity
70421;SHT31;57848;51.938;15.520;2023-03-01T00:02:04;0.00;72.82
70421;SHT31;57848;51.938;15.520;2023-03-01T00:04:30;-0.16;73.78
70421;SHT31;57848;51.938;15.520;2023-03-01T00:06:56;-0.24;73.90
70421;SHT31;57848;51.938;15.520;2023-03-01T00:09:21;-0.31;75.93
70421;SHT31;57848;51.938;15.520;2023-03-01T00:11:48;-0.20;74.61
70421;SHT31;57848;51.938;15.520;2023-03-01T00:14:14;-0.24;74.72
70421;SHT31;57848;51.938;15.520;2023-03-01T00:16:42;-0.34;75.33
70421;SHT31;57848;51.938;15.520;2023-03-01T00:19:12;-0.37;75.99
70421;SHT31;57848;51.938;15.520;2023-03-01T00:21:37;-0.37;75.89
70421;SHT31;57848;51.938;15.520;2023-03-01T00:24:03;-0.26;74.41
70421;SHT31;57848;51.938;15.520;2023-03-01T00:26:28;-0.35;74.52
70421;SHT31;57848;51.938;15.520;2023-03-01T00:28:54;-0.27;74.05
70421;SHT31;57848;51.938;15.520;2023-03-01T00:31:25;-0.37;75.54
70421;SHT31;57848;51.938;15.520;2023-03-01T00:33:56;-0.44;76.29
70421;SHT31;57848;51.938;15.520;2023-03-01T00:36:23;-0.34;75.43
70421;SHT31;57848;51.938;15.520;2023-03-01T00:38:49;-0.27;74.65
70421;SHT31;57848;51.938;15.520;2023-03-01T00:41:16;-0.42;75.38
70421;SHT31;57848;51.938;15.520;2023-03-01T00:43:43;-0.41;75.59
70421;SHT31;57848;51.938;15.520;2023-03-01T00:46:14;-0.48;75.93
70421;SHT31;57848;51.938;15.520;2023-03-01T00:48:40;-0.50;75.51
70421;SHT31;57848;51.938;15.520;2023-03-01T00:51:14;-0.37;75.47
70421;SHT31;57848;51.938;15.520;2023-03-01T00:53:40;-0.45;75.79
70421;SHT31;57848;51.938;15.520;2023-03-01T00:56:06;-0.50;76.14
70421;SHT31;57848;51.938;15.520;2023-03-01T00:58:32;-0.57;76.58
70421;SHT31;57848;51.938;15.520;2023-03-01T01:00:58;-0.57;76.68
70421;SHT31;57848;51.938;15.520;2023-03-01T01:03:24;-0.57;77.13
70421;SHT31;57848;51.938;15.520;2023-03-01T01:05:53;-0.53;76.90
70421;SHT31;57848;51.938;15.520;2023-03-01T01:08:20;-0.62;77.12
70421;SHT31;57848;51.938;15.520;2023-03-01T01:10:46;-0.64;77.56
70421;SHT31;57848;51.938;15.520;2023-03-01T01:13:12;-0.68;78.03
70421;SHT31;57848;51.938;15.520;2023-03-01T01:15:38;-0.68;77.79
70421;SHT31;57848;51.938;15.520;2023-03-01T01:18:03;-0.66;77.24
70421;SHT31;57848;51.938;15.520;2023-03-01T01:20:29;-0.61;77.47
70421;SHT31;57848;51.938;15.520;2023-03-01T01:22:54;-0.57;77.09
70421;SHT31;57848;51.938;15.520;2023-03-01T01:25:20;-0.66;77.27
70421;SHT31;57848;51.938;15.520;2023-03-01T01:27:45;-0.75;77.76
70421;SHT31;57848;51.938;15.520;2023-03-01T01:30:11;-0.75;77.26
70421;SHT31;57848;51.938;15.520;2023-03-01T01:32:37;-0.74;77.54
70421;SHT31;57848;51.938;15.520;2023-03-01T01:35:02;-0.71;78.05
70421;SHT31;57848;51.938;15.520;2023-03-01T01:37:28;-0.78;77.83
70421;SHT31;57848;51.938;15.520;2023-03-01T01:39:58;-0.75;77.57
70421;SHT31;57848;51.938;15.520;2023-03-01T01:42:25;-0.79;77.61
70421;SHT31;57848;51.938;15.520;2023-03-01T01:45:34;-0.78;78.01
70421;SHT31;57848;51.938;15.520;2023-03-01T01:48:04;-0.78;78.19
70421;SHT31;57848;51.938;15.520;2023-03-01T01:50:33;-0.81;77.48
70421;SHT31;57848;51.938;15.520;2023-03-01T01:53:12;-0.75;76.76
70421;SHT31;57848;51.938;15.520;2023-03-01T01:55:45;-0.69;76.65
70421;SHT31;57848;51.938;15.520;2023-03-01T01:58:15;-0.76;76.23
70421;SHT31;57848;51.938;15.520;2023-03-01T02:00:42;-0.69;76.16
70421;SHT31;57848;51.938;15.520;2023-03-01T02:03:14;-0.76;75.88
70421;SHT31;57848;51.938;15.520;2023-03-01T02:05:47;-0.75;76.22
70421;SHT31;57848;51.938;15.520;2023-03-01T02:08:17;-0.78;76.28
70421;SHT31;57848;51.938;15.520;2023-03-01T02:10:44;-0.84;76.83
70421;SHT31;57848;51.938;15.520;2023-03-01T02:13:10;-0.84;76.99
70421;SHT31;57848;51.938;15.520;2023-03-01T02:15:37;-0.86;77.96
70421;SHT31;57848;51.938;15.520;2023-03-01T02:18:04;-0.92;77.60
70421;SHT31;57848;51.938;15.520;2023-03-01T02:23:14;-1.03;76.27
70421;SHT31;57848;51.938;15.520;2023-03-01T02:25:59;-1.06;76.28
70421;SHT31;57848;51.938;15.520;2023-03-01T02:28:36;-1.15;76.86
70421;SHT31;57848;51.938;15.520;2023-03-01T02:31:04;-1.13;77.04
70421;SHT31;57848;51.938;15.520;2023-03-01T02:33:49;-1.15;77.41
70421;SHT31;57848;51.938;15.520;2023-03-01T02:36:18;-1.16;77.62
70421;SHT31;57848;51.938;15.520;2023-03-01T02:38:47;-1.20;77.82
70421;SHT31;57848;51.938;15.520;2023-03-01T02:41:15;-1.25;78.01
70421;SHT31;57848;51.938;15.520;2023-03-01T02:43:41;-1.26;78.20
70421;SHT31;57848;51.938;15.520;2023-03-01T02:46:14;-1.30;78.47
70421;SHT31;57848;51.938;15.520;2023-03-01T02:48:48;-1.32;78.83
70421;SHT31;57848;51.938;15.520;2023-03-01T02:56:34;-1.32;79.56
70421;SHT31;57848;51.938;15.520;2023-03-01T02:59:00;-1.32;79.66
70421;SHT31;57848;51.938;15.520;2023-03-01T03:01:27;-1.33;79.66
70421;SHT31;57848;51.938;15.520;2023-03-01T03:04:08;-1.13;79.33
70421;SHT31;57848;51.938;15.520;2023-03-01T03:06:35;-1.03;79.04
70421;SHT31;57848;51.938;15.520;2023-03-01T03:09:01;-1.06;78.81
70421;SHT31;57848;51.938;15.520;2023-03-01T03:11:26;-1.19;79.34
70421;SHT31;57848;51.938;15.520;2023-03-01T03:13:53;-1.15;79.44
70421;SHT31;57848;51.938;15.520;2023-03-01T03:16:19;-1.30;79.63
70421;SHT31;57848;51.938;15.520;2023-03-01T03:18:45;-1.36;80.36
70421;SHT31;57848;51.938;15.520;2023-03-01T03:21:11;-1.34;80.46
70421;SHT31;57848;51.938;15.520;2023-03-01T03:23:38;-1.39;80.40
70421;SHT31;57848;51.938;15.520;2023-03-01T03:26:04;-1.33;80.70
70421;SHT31;57848;51.938;15.520;2023-03-01T03:28:31;-1.25;80.12
70421;SHT31;57848;51.938;15.520;2023-03-01T03:30:57;-1.23;80.09
70421;SHT31;57848;51.938;15.520;2023-03-01T03:33:23;-1.25;80.07
70421;SHT31;57848;51.938;15.520;2023-03-01T03:35:50;-1.27;80.79
70421;SHT31;57848;51.938;15.520;2023-03-01T03:38:18;-1.36;81.37
70421;SHT31;57848;51.938;15.520;2023-03-01T03:41:01;-1.43;81.82
70421;SHT31;57848;51.938;15.520;2023-03-01T03:43:30;-1.50;81.92
70421;SHT31;57848;51.938;15.520;2023-03-01T03:45:55;-1.46;81.76
70421;SHT31;57848;51.938;15.520;2023-03-01T03:48:22;-1.37;81.98
70421;SHT31;57848;51.938;15.520;2023-03-01T03:50:53;-1.43;82.09
70421;SHT31;57848;51.938;15.520;2023-03-01T03:53:21;-1.37;81.79
70421;SHT31;57848;51.938;15.520;2023-03-01T03:55:47;-1.39;81.70
70421;SHT31;57848;51.938;15.520;2023-03-01T03:58:15;-1.44;81.05
70421;SHT31;57848;51.938;15.520;2023-03-01T04:00:43;-1.42;81.35
70421;SHT31;57848;51.938;15.520;2023-03-01T04:03:11;-1.42;81.59
70421;SHT31;57848;51.938;15.520;2023-03-01T04:05:37;-1.32;81.25
70421;SHT31;57848;51.938;15.520;2023-03-01T04:08:03;-1.21;80.59
70421;SHT31;57848;51.938;15.520;2023-03-01T04:10:46;-1.32;81.08
70421;SHT31;57848;51.938;15.520;2023-03-01T04:13:14;-1.15;80.05
70421;SHT31;57848;51.938;15.520;2023-03-01T04:15:41;-1.20;80.43
70421;SHT31;57848;51.938;15.520;2023-03-01T04:18:08;-1.27;80.95
70421;SHT31;57848;51.938;15.520;2023-03-01T04:20:35;-1.37;80.89
70421;SHT31;57848;51.938;15.520;2023-03-01T04:23:06;-1.30;80.68
70421;SHT31;57848;51.938;15.520;2023-03-01T04:25:55;-1.33;80.67
70421;SHT31;57848;51.938;15.520;2023-03-01T04:28:54;-1.37;80.92
70421;SHT31;57848;51.938;15.520;2023-03-01T04:31:20;-1.27;80.75
70421;SHT31;57848;51.938;15.520;2023-03-01T04:33:54;-1.26;80.59
70421;SHT31;57848;51.938;15.520;2023-03-01T04:36:24;-1.23;80.31
70421;SHT31;57848;51.938;15.520;2023-03-01T04:38:50;-1.33;80.70
70421;SHT31;57848;51.938;15.520;2023-03-01T04:41:18;-1.36;80.85
70421;SHT31;57848;51.938;15.520;2023-03-01T04:43:44;-1.43;81.23
70421;SHT31;57848;51.938;15.520;2023-03-01T04:46:16;-1.43;81.45
70421;SHT31;57848;51.938;15.520;2023-03-01T04:48:43;-1.34;81.17
70421;SHT31;57848;51.938;15.520;2023-03-01T04:51:09;-1.39;80.84
70421;SHT31;57848;51.938;15.520;2023-03-01T04:53:39;-1.40;81.21
70421;SHT31;57848;51.938;15.520;2023-03-01T04:56:04;-1.39;80.72
70421;SHT31;57848;51.938;15.520;2023-03-01T04:58:30;-1.39;80.52
70421;SHT31;57848;51.938;15.520;2023-03-01T05:00:55;-1.42;80.64
70421;SHT31;57848;51.938;15.520;2023-03-01T05:03:21;-1.47;81.57
70421;SHT31;57848;51.938;15.520;2023-03-01T05:05:49;-1.58;81.69
70421;SHT31;57848;51.938;15.520;2023-03-01T05:08:15;-1.58;81.19
70421;SHT31;57848;51.938;15.520;2023-03-01T05:10:52;-1.63;80.89
70421;SHT31;57848;51.938;15.520;2023-03-01T05:13:19;-1.56;80.41
70421;SHT31;57848;51.938;15.520;2023-03-01T05:15:53;-1.46;80.51
70421;SHT31;57848;51.938;15.520;2023-03-01T05:18:19;-1.46;80.35
70421;SHT31;57848;51.938;15.520;2023-03-01T05:20:44;-1.40;80.18
70421;SHT31;57848;51.938;15.520;2023-03-01T05:23:10;-1.30;80.23
70421;SHT31;57848;51.938;15.520;2023-03-01T05:25:35;-1.47;81.01
70421;SHT31;57848;51.938;15.520;2023-03-01T05:28:06;-1.57;80.94
70421;SHT31;57848;51.938;15.520;2023-03-01T05:30:35;-1.56;80.78
70421;SHT31;57848;51.938;15.520;2023-03-01T05:33:01;-1.57;80.75
70421;SHT31;57848;51.938;15.520;2023-03-01T05:35:27;-1.53;81.06
70421;SHT31;57848;51.938;15.520;2023-03-01T05:37:52;-1.46;80.45
70421;SHT31;57848;51.938;15.520;2023-03-01T05:40:21;-1.36;80.09
70421;SHT31;57848;51.938;15.520;2023-03-01T05:42:53;-1.37;80.16
70421;SHT31;57848;51.938;15.520;2023-03-01T05:45:23;-1.42;80.55
70421;SHT31;57848;51.938;15.520;2023-03-01T05:47:50;-1.46;80.60
70421;SHT31;57848;51.938;15.520;2023-03-01T05:50:23;-1.44;80.75
70421;SHT31;57848;51.938;15.520;2023-03-01T05:53:02;-1.34;79.89
70421;SHT31;57848;51.938;15.520;2023-03-01T05:55:29;-1.34;80.01
70421;SHT31;57848;51.938;15.520;2023-03-01T05:57:58;-1.25;79.58
70421;SHT31;57848;51.938;15.520;2023-03-01T06:00:23;-1.26;79.38
70421;SHT31;57848;51.938;15.520;2023-03-01T06:02:49;-1.19;79.15
70421;SHT31;57848;51.938;15.520;2023-03-01T06:05:14;-1.33;80.34
70421;SHT31;57848;51.938;15.520;2023-03-01T06:07:41;-1.33;80.48
70421;SHT31;57848;51.938;15.520;2023-03-01T06:10:07;-1.39;80.17
70421;SHT31;57848;51.938;15.520;2023-03-01T06:12:34;-1.39;80.16
70421;SHT31;57848;51.938;15.520;2023-03-01T06:15:00;-1.40;80.76
70421;SHT31;57848;51.938;15.520;2023-03-01T06:17:26;-1.44;81.08
70421;SHT31;57848;51.938;15.520;2023-03-01T06:19:53;-1.42;81.02
70421;SHT31;57848;51.938;15.520;2023-03-01T06:22:19;-1.37;81.07
70421;SHT31;57848;51.938;15.520;2023-03-01T06:24:44;-1.29;80.26
70421;SHT31;57848;51.938;15.520;2023-03-01T06:27:09;-1.23;80.22
70421;SHT31;57848;51.938;15.520;2023-03-01T06:29:35;-1.29;80.62
70421;SHT31;57848;51.938;15.520;2023-03-01T06:32:00;-1.27;80.31
70421;SHT31;57848;51.938;15.520;2023-03-01T06:34:27;-1.23;80.19
70421;SHT31;57848;51.938;15.520;2023-03-01T06:36:52;-1.27;79.79
70421;SHT31;57848;51.938;15.520;2023-03-01T06:39:17;-1.30;79.86
70421;SHT31;57848;51.938;15.520;2023-03-01T06:41:44;-1.26;80.09
70421;SHT31;57848;51.938;15.520;2023-03-01T06:44:10;-1.15;80.28
70421;SHT31;57848;51.938;15.520;2023-03-01T06:46:35;-1.15;80.31
70421;SHT31;57848;51.938;15.520;2023-03-01T06:49:01;-1.12;79.93
70421;SHT31;57848;51.938;15.520;2023-03-01T06:51:29;-1.05;80.00
70421;SHT31;57848;51.938;15.520;2023-03-01T06:53:55;-1.00;80.14
70421;SHT31;57848;51.938;15.520;2023-03-01T06:56:20;-0.92;79.96
70421;SHT31;57848;51.938;15.520;2023-03-01T06:58:46;-0.75;79.84
70421;SHT31;57848;51.938;15.520;2023-03-01T07:01:11;-0.78;79.96
70421;SHT31;57848;51.938;15.520;2023-03-01T07:03:36;-0.75;79.73
70421;SHT31;57848;51.938;15.520;2023-03-01T07:06:02;-0.79;79.73
70421;SHT31;57848;51.938;15.520;2023-03-01T07:08:27;-0.68;79.53
70421;SHT31;57848;51.938;15.520;2023-03-01T07:10:59;-0.68;79.42
70421;SHT31;57848;51.938;15.520;2023-03-01T07:13:27;-0.68;79.19
70421;SHT31;57848;51.938;15.520;2023-03-01T07:15:52;-0.64;79.15
70421;SHT31;57848;51.938;15.520;2023-03-01T07:18:18;-0.57;78.95
70421;SHT31;57848;51.938;15.520;2023-03-01T07:20:43;-0.51;78.81
70421;SHT31;57848;51.938;15.520;2023-03-01T07:23:08;-0.47;78.74
70421;SHT31;57848;51.938;15.520;2023-03-01T07:25:34;-0.41;78.70
70421;SHT31;57848;51.938;15.520;2023-03-01T07:28:00;-0.34;78.60
70421;SHT31;57848;51.938;15.520;2023-03-01T07:30:25;-0.21;78.51
70421;SHT31;57848;51.938;15.520;2023-03-01T07:32:54;-0.18;77.93
70421;SHT31;57848;51.938;15.520;2023-03-01T07:35:20;-0.13;77.63
70421;SHT31;57848;51.938;15.520;2023-03-01T07:37:46;-0.04;76.95
70421;SHT31;57848;51.938;15.520;2023-03-01T07:40:12;0.03;76.53
70421;SHT31;57848;51.938;15.520;2023-03-01T07:42:38;0.08;76.14
70421;SHT31;57848;51.938;15.520;2023-03-01T07:45:04;0.18;75.58
70421;SHT31;57848;51.938;15.520;2023-03-01T07:47:30;0.24;75.72
70421;SHT31;57848;51.938;15.520;2023-03-01T07:49:55;0.34;76.07
70421;SHT31;57848;51.938;15.520;2023-03-01T07:52:21;0.38;76.06
70421;SHT31;57848;51.938;15.520;2023-03-01T07:54:46;0.48;75.96
70421;SHT31;57848;51.938;15.520;2023-03-01T07:57:12;0.55;74.96
70421;SHT31;57848;51.938;15.520;2023-03-01T07:59:37;0.69;74.11
70421;SHT31;57848;51.938;15.520;2023-03-01T08:02:03;0.69;73.92
70421;SHT31;57848;51.938;15.520;2023-03-01T08:04:28;0.76;73.88
70421;SHT31;57848;51.938;15.520;2023-03-01T08:06:54;0.79;73.52
70421;SHT31;57848;51.938;15.520;2023-03-01T08:09:20;0.87;73.36
70421;SHT31;57848;51.938;15.520;2023-03-01T08:11:46;0.92;73.16
70421;SHT31;57848;51.938;15.520;2023-03-01T08:14:11;0.96;73.32
70421;SHT31;57848;51.938;15.520;2023-03-01T08:16:37;1.03;73.36
70421;SHT31;57848;51.938;15.520;2023-03-01T08:19:07;1.07;73.35
70421;SHT31;57848;51.938;15.520;2023-03-01T08:21:33;1.14;72.97
70421;SHT31;57848;51.938;15.520;2023-03-01T08:24:01;1.22;72.97
70421;SHT31;57848;51.938;15.520;2023-03-01T08:26:27;1.38;71.67
70421;SHT31;57848;51.938;15.520;2023-03-01T08:28:52;1.37;72.39
70421;SHT31;57848;51.938;15.520;2023-03-01T08:31:29;1.43;72.35
70421;SHT31;57848;51.938;15.520;2023-03-01T08:33:58;1.58;71.09
70421;SHT31;57848;51.938;15.520;2023-03-01T08:36:26;1.65;71.21
70421;SHT31;57848;51.938;15.520;2023-03-01T08:38:52;1.76;70.67
70421;SHT31;57848;51.938;15.520;2023-03-01T08:41:18;1.83;70.34
70421;SHT31;57848;51.938;15.520;2023-03-01T08:43:44;1.83;70.68
70421;SHT31;57848;51.938;15.520;2023-03-01T08:46:11;1.92;70.20
70421;SHT31;57848;51.938;15.520;2023-03-01T08:48:36;2.07;68.94
70421;SHT31;57848;51.938;15.520;2023-03-01T08:51:16;2.07;68.92
70421;SHT31;57848;51.938;15.520;2023-03-01T08:53:42;2.07;68.84
70421;SHT31;57848;51.938;15.520;2023-03-01T08:56:09;2.13;69.09
70421;SHT31;57848;51.938;15.520;2023-03-01T08:58:34;2.15;69.42
70421;SHT31;57848;51.938;15.520;2023-03-01T09:01:00;2.24;68.92
70421;SHT31;57848;51.938;15.520;2023-03-01T09:03:26;2.26;69.37
70421;SHT31;57848;51.938;15.520;2023-03-01T09:05:52;2.29;69.65
70421;SHT31;57848;51.938;15.520;2023-03-01T09:08:18;2.37;68.92
70421;SHT31;57848;51.938;15.520;2023-03-01T09:10:44;2.47;68.70
70421;SHT31;57848;51.938;15.520;2023-03-01T09:13:09;2.38;68.96
70421;SHT31;57848;51.938;15.520;2023-03-01T09:15:37;2.43;68.67
70421;SHT31;57848;51.938;15.520;2023-03-01T09:18:02;2.44;69.14
70421;SHT31;57848;51.938;15.520;2023-03-01T09:20:28;2.51;68.49
70421;SHT31;57848;51.938;15.520;2023-03-01T09:22:53;2.57;68.36
70421;SHT31;57848;51.938;15.520;2023-03-01T09:25:18;2.55;68.25
70421;SHT31;57848;51.938;15.520;2023-03-01T09:27:44;2.61;68.63
70421;SHT31;57848;51.938;15.520;2023-03-01T09:30:10;2.67;68.61
70421;SHT31;57848;51.938;15.520;2023-03-01T09:32:35;2.71;68.55
70421;SHT31;57848;51.938;15.520;2023-03-01T09:35:01;2.85;67.39
70421;SHT31;57848;51.938;15.520;2023-03-01T09:37:33;2.98;66.84
70421;SHT31;57848;51.938;15.520;2023-03-01T09:39:59;3.04;65.98
70421;SHT31;57848;51.938;15.520;2023-03-01T09:42:25;3.16;65.69
70421;SHT31;57848;51.938;15.520;2023-03-01T09:47:21;3.39;65.19
70421;SHT31;57848;51.938;15.520;2023-03-01T09:50:01;3.46;65.33
70421;SHT31;57848;51.938;15.520;2023-03-01T09:52:40;3.60;65.42
70421;SHT31;57848;51.938;15.520;2023-03-01T09:55:15;3.64;65.09
70421;SHT31;57848;51.938;15.520;2023-03-01T09:57:53;3.70;64.65
70421;SHT31;57848;51.938;15.520;2023-03-01T10:00:39;3.70;64.12
70421;SHT31;57848;51.938;15.520;2023-03-01T10:03:26;3.73;63.58
70421;SHT31;57848;51.938;15.520;2023-03-01T10:06:08;3.88;63.12
70421;SHT31;57848;51.938;15.520;2023-03-01T10:11:21;6.27;57.60
70421;SHT31;57848;51.938;15.520;2023-03-01T10:14:09;8.59;49.51
70421;SHT31;57848;51.938;15.520;2023-03-01T10:17:12;10.30;45.21
70421;SHT31;57848;51.938;15.520;2023-03-01T10:19:44;11.41;42.52
70421;SHT31;57848;51.938;15.520;2023-03-01T10:22:48;11.95;41.50
70421;SHT31;57848;51.938;15.520;2023-03-01T10:25:13;12.63;39.41
70421;SHT31;57848;51.938;15.520;2023-03-01T10:27:53;12.81;38.48
70421;SHT31;57848;51.938;15.520;2023-03-01T10:30:32;12.79;39.03
70421;SHT31;57848;51.938;15.520;2023-03-01T10:32:59;12.53;38.65
70421;SHT31;57848;51.938;15.520;2023-03-01T10:35:28;13.02;39.14
70421;SHT31;57848;51.938;15.520;2023-03-01T10:37:58;13.32;37.01
70421;SHT31;57848;51.938;15.520;2023-03-01T10:40:23;13.65;36.28
70421;SHT31;57848;51.938;15.520;2023-03-01T10:42:49;14.44;35.09
70421;SHT31;57848;51.938;15.520;2023-03-01T10:45:37;14.35;35.36
70421;SHT31;57848;51.938;15.520;2023-03-01T10:48:12;15.47;33.03
70421;SHT31;57848;51.938;15.520;2023-03-01T10:50:40;15.95;32.27
70421;SHT31;57848;51.938;15.520;2023-03-01T10:53:20;15.87;32.14
70421;SHT31;57848;51.938;15.520;2023-03-01T10:55:46;14.83;32.00
70421;SHT31;57848;51.938;15.520;2023-03-01T11:00:53;14.98;30.97
70421;SHT31;57848;51.938;15.520;2023-03-01T11:03:23;16.46;30.13
70421;SHT31;57848;51.938;15.520;2023-03-01T11:05:58;16.01;30.36
70421;SHT31;57848;51.938;15.520;2023-03-01T11:08:30;16.91;29.43
70421;SHT31;57848;51.938;15.520;2023-03-01T11:16:40;17.03;28.60
70421;SHT31;57848;51.938;15.520;2023-03-01T11:21:36;18.04;27.38
70421;SHT31;57848;51.938;15.520;2023-03-01T11:24:03;18.66;26.76
70421;SHT31;57848;51.938;15.520;2023-03-01T11:26:30;18.71;26.08
70421;SHT31;57848;51.938;15.520;2023-03-01T11:29:03;18.01;26.55
70421;SHT31;57848;51.938;15.520;2023-03-01T11:31:29;18.64;26.28
70421;SHT31;57848;51.938;15.520;2023-03-01T11:34:05;18.89;26.16
70421;SHT31;57848;51.938;15.520;2023-03-01T11:39:34;18.64;26.08
70421;SHT31;57848;51.938;15.520;2023-03-01T11:42:12;18.76;25.65
70421;SHT31;57848;51.938;15.520;2023-03-01T11:44:40;18.89;25.14
70421;SHT31;57848;51.938;15.520;2023-03-01T11:58:39;19.43;22.28
70421;SHT31;57848;51.938;15.520;2023-03-01T12:01:19;18.86;23.60
70421;SHT31;57848;51.938;15.520;2023-03-01T12:03:54;20.14;21.70
70421;SHT31;57848;51.938;15.520;2023-03-01T12:06:39;19.82;21.99
70421;SHT31;57848;51.938;15.520;2023-03-01T12:14:20;19.70;23.24
70421;SHT31;57848;51.938;15.520;2023-03-01T12:19:26;18.34;25.14
70421;SHT31;57848;51.938;15.520;2023-03-01T12:22:09;17.69;25.27
70421;SHT31;57848;51.938;15.520;2023-03-01T12:24:43;17.83;25.90
70421;SHT31;57848;51.938;15.520;2023-03-01T12:27:26;17.85;26.31
70421;SHT31;57848;51.938;15.520;2023-03-01T12:30:15;18.57;25.41
70421;SHT31;57848;51.938;15.520;2023-03-01T12:36:12;17.67;26.37
70421;SHT31;57848;51.938;15.520;2023-03-01T12:38:47;17.56;26.74
70421;SHT31;57848;51.938;15.520;2023-03-01T12:49:35;12.71;31.97
70421;SHT31;57848;51.938;15.520;2023-03-01T12:54:36;11.77;33.09
70421;SHT31;57848;51.938;15.520;2023-03-01T12:57:33;10.54;35.49
70421;SHT31;57848;51.938;15.520;2023-03-01T13:00:28;10.30;35.67
70421;SHT31;57848;51.938;15.520;2023-03-01T13:08:49;9.59;34.77
70421;SHT31;57848;51.938;15.520;2023-03-01T13:11:21;9.26;36.00
70421;SHT31;57848;51.938;15.520;2023-03-01T13:13:47;9.01;37.36
70421;SHT31;57848;51.938;15.520;2023-03-01T13:19:13;9.08;35.86
70421;SHT31;57848;51.938;15.520;2023-03-01T13:21:39;8.85;36.63
70421;SHT31;57848;51.938;15.520;2023-03-01T13:32:26;8.52;36.15
70421;SHT31;57848;51.938;15.520;2023-03-01T13:35:02;8.59;36.52
70421;SHT31;57848;51.938;15.520;2023-03-01T13:37:35;8.56;35.83
70421;SHT31;57848;51.938;15.520;2023-03-01T13:40:05;8.32;37.14
70421;SHT31;57848;51.938;15.520;2023-03-01T13:42:56;8.21;38.13
70421;SHT31;57848;51.938;15.520;2023-03-01T13:45:23;8.13;38.79
70421;SHT31;57848;51.938;15.520;2023-03-01T13:48:02;8.10;39.06
70421;SHT31;57848;51.938;15.520;2023-03-01T13:50:33;7.89;40.48
70421;SHT31;57848;51.938;15.520;2023-03-01T13:53:03;8.21;37.66
70421;SHT31;57848;51.938;15.520;2023-03-01T13:55:51;7.89;38.00
70421;SHT31;57848;51.938;15.520;2023-03-01T13:58:25;7.84;38.92
70421;SHT31;57848;51.938;15.520;2023-03-01T14:00:57;7.75;38.22
70421;SHT31;57848;51.938;15.520;2023-03-01T14:03:23;7.73;37.91
70421;SHT31;57848;51.938;15.520;2023-03-01T14:06:11;7.65;37.82
70421;SHT31;57848;51.938;15.520;2023-03-01T14:08:38;7.58;38.59
70421;SHT31;57848;51.938;15.520;2023-03-01T14:11:21;7.54;38.05
70421;SHT31;57848;51.938;15.520;2023-03-01T14:14:10;7.65;38.01
70421;SHT31;57848;51.938;15.520;2023-03-01T14:19:26;7.61;37.96
70421;SHT31;57848;51.938;15.520;2023-03-01T14:22:23;7.64;38.81
70421;SHT31;57848;51.938;15.520;2023-03-01T14:24:55;7.53;35.72
70421;SHT31;57848;51.938;15.520;2023-03-01T14:27:23;7.37;34.80
70421;SHT31;57848;51.938;15.520;2023-03-01T14:29:56;7.31;35.86
70421;SHT31;57848;51.938;15.520;2023-03-01T14:32:25;7.17;35.97
70421;SHT31;57848;51.938;15.520;2023-03-01T14:34:51;7.13;37.26
70421;SHT31;57848;51.938;15.520;2023-03-01T14:37:27;7.09;37.56
70421;SHT31;57848;51.938;15.520;2023-03-01T14:39:53;7.00;36.23
70421;SHT31;57848;51.938;15.520;2023-03-01T14:42:24;6.92;34.62
70421;SHT31;57848;51.938;15.520;2023-03-01T14:44:52;6.91;36.37
70421;SHT31;57848;51.938;15.520;2023-03-01T14:47:30;6.88;36.42
70421;SHT31;57848;51.938;15.520;2023-03-01T14:50:00;6.78;36.29
70421;SHT31;57848;51.938;15.520;2023-03-01T14:52:36;6.65;35.72
70421;SHT31;57848;51.938;15.520;2023-03-01T14:55:05;6.65;36.88
70421;SHT31;57848;51.938;15.520;2023-03-01T14:57:30;6.64;37.35
70421;SHT31;57848;51.938;15.520;2023-03-01T15:00:02;6.62;38.45
70421;SHT31;57848;51.938;15.520;2023-03-01T15:02:31;6.64;39.36
70421;SHT31;57848;51.938;15.520;2023-03-01T15:05:00;6.61;39.05
70421;SHT31;57848;51.938;15.520;2023-03-01T15:07:29;6.54;39.66
70421;SHT31;57848;51.938;15.520;2023-03-01T15:09:55;6.59;37.91
70421;SHT31;57848;51.938;15.520;2023-03-01T15:14:53;6.61;37.28
70421;SHT31;57848;51.938;15.520;2023-03-01T15:19:46;6.62;36.62
70421;SHT31;57848;51.938;15.520;2023-03-01T15:22:15;6.46;37.73
70421;SHT31;57848;51.938;15.520;2023-03-01T15:24:41;6.49;39.43
70421;SHT31;57848;51.938;15.520;2023-03-01T15:27:16;6.45;40.24
70421;SHT31;57848;51.938;15.520;2023-03-01T15:29:51;6.46;40.93
70421;SHT31;57848;51.938;15.520;2023-03-01T15:34:57;6.33;38.44
70421;SHT31;57848;51.938;15.520;2023-03-01T15:37:44;6.27;40.47
70421;SHT31;57848;51.938;15.520;2023-03-01T15:40:20;6.20;41.87
70421;SHT31;57848;51.938;15.520;2023-03-01T15:42:49;6.20;42.63
70421;SHT31;57848;51.938;15.520;2023-03-01T15:47:43;6.17;44.15
70421;SHT31;57848;51.938;15.520;2023-03-01T15:50:26;6.14;44.19
70421;SHT31;57848;51.938;15.520;2023-03-01T15:52:52;6.06;44.59
70421;SHT31;57848;51.938;15.520;2023-03-01T15:55:21;6.07;44.83
70421;SHT31;57848;51.938;15.520;2023-03-01T15:57:48;5.96;45.47
70421;SHT31;57848;51.938;15.520;2023-03-01T16:00:14;5.94;45.80
70421;SHT31;57848;51.938;15.520;2023-03-01T16:02:41;5.93;45.77
70421;SHT31;57848;51.938;15.520;2023-03-01T16:07:42;5.80;46.41
70421;SHT31;57848;51.938;15.520;2023-03-01T16:10:08;5.72;46.39
70421;SHT31;57848;51.938;15.520;2023-03-01T16:12:33;5.69;46.73
70421;SHT31;57848;51.938;15.520;2023-03-01T16:14:59;5.63;47.19
70421;SHT31;57848;51.938;15.520;2023-03-01T16:17:24;5.59;47.95
70421;SHT31;57848;51.938;15.520;2023-03-01T16:19:50;5.56;47.51
70421;SHT31;57848;51.938;15.520;2023-03-01T16:22:16;5.75;47.38
70421;SHT31;57848;51.938;15.520;2023-03-01T16:24:41;5.60;48.27
70421;SHT31;57848;51.938;15.520;2023-03-01T16:27:07;5.56;48.27
70421;SHT31;57848;51.938;15.520;2023-03-01T16:29:32;5.56;48.26
70421;SHT31;57848;51.938;15.520;2023-03-01T16:32:01;5.49;48.21
70421;SHT31;57848;51.938;15.520;2023-03-01T16:34:26;5.35;48.70
70421;SHT31;57848;51.938;15.520;2023-03-01T16:36:52;5.28;49.58
70421;SHT31;57848;51.938;15.520;2023-03-01T16:39:17;5.20;49.72
70421;SHT31;57848;51.938;15.520;2023-03-01T16:41:43;5.11;49.89
70421;SHT31;57848;51.938;15.520;2023-03-01T16:44:08;5.07;50.36
70421;SHT31;57848;51.938;15.520;2023-03-01T16:46:33;4.98;50.62
70421;SHT31;57848;51.938;15.520;2023-03-01T16:48:59;4.97;51.22
70421;SHT31;57848;51.938;15.520;2023-03-01T16:51:24;4.83;51.60
70421;SHT31;57848;51.938;15.520;2023-03-01T16:53:51;4.81;52.03
70421;SHT31;57848;51.938;15.520;2023-03-01T16:56:17;4.74;53.01
70421;SHT31;57848;51.938;15.520;2023-03-01T16:58:43;4.66;53.02
70421;SHT31;57848;51.938;15.520;2023-03-01T17:01:15;4.69;53.12
70421;SHT31;57848;51.938;15.520;2023-03-01T17:03:41;4.57;53.13
70421;SHT31;57848;51.938;15.520;2023-03-01T17:06:10;4.50;53.28
70421;SHT31;57848;51.938;15.520;2023-03-01T17:08:37;4.49;54.04
70421;SHT31;57848;51.938;15.520;2023-03-01T17:11:09;4.39;55.17